Main page
METAR-TAF:

METAR-TAF

Airports :

Northolt, England

RAF Northolt

latitude: 51-33N, longitude: 000-25W, elevation: 38 m

Current weather observation

The report was made 20 minutes ago, at 06:50 UTC
Wind 10 kt from the West
Temperature 14°C
Humidity 82%
Pressure 1016 hPa
Visibility 10 km or more
Few clouds at a height of 2000 ft
Scattered clouds at a height of 7000 ft

METAR: EGWU 190650Z 27010KT 9999 FEW020 SCT070 14/11 Q1016 BLU NOSIG

Time: 08:10 (07:10 UTC)

Forecast

The report was made 2 hours and 31 minutes ago, at 04:39 UTC
Forecast valid from 19 at 06 UTC to 19 at 24 UTC
Wind 12 kt from the West
Visibility 10 km or more
Few clouds at a height of 3500 ft
Probability 40% :
Temporary
from 19 at 09 UTC to 19 at 18 UTC
Wind 15 kt from the West with gusts up to 25 kt

TAF: EGWU 190439Z 1906/1924 26012KT 9999 FEW035 PROB40 TEMPO 1909/1918 27015G25KT

Weather observations and forecasts of more than 4000 airports (METAR and TAF reports).

The available stations are represented by yellow and red dots on the map.

Hover mouse over dot to see the name of the station.

Then click to see weather observations and forecasts.

To change the map : click on the green buttons with a black cross to zoom in, on the green button with a dash to zoom out, or on the green arrows for adjacent maps.


METAR-TAF: